Time;durP1;ratioP1;P1;durP2;ratioP2;P2;SDS_P1;SDS_P2;PMS_P1;PMS_P2;Temp;Humidity;BMP_temperature;BMP_pressure;BME280_temperature;BME280_humidity;BME280_pressure;Samples;Min_cycle;Max_cycle;Signal;HPM_P1;HPM_P2
2022/07/01 00:01:12;;;;;;;8.63;4.10;;;;;;;28.92;47.14;100393.34;4980128;28;20038;-58
2022/07/01 00:03:57;;;;;;;14.75;3.72;;;;;;;28.91;47.34;100381.34;4974688;28;20525;-58
2022/07/01 00:06:42;;;;;;;18.23;4.00;;;;;;;28.88;47.43;100385.06;4980439;28;20399;-59
2022/07/01 00:09:27;;;;;;;18.67;3.85;;;;;;;28.83;47.53;100388.44;4957863;28;20415;-59
2022/07/01 00:12:12;;;;;;;8.35;3.20;;;;;;;28.81;47.58;100381.69;4971886;28;20054;-59
2022/07/01 00:15:00;;;;;;;8.57;3.45;;;;;;;28.79;47.42;100384.19;4965344;28;20054;-59
2022/07/01 00:17:45;;;;;;;19.88;4.18;;;;;;;28.76;47.85;100399.84;4962360;28;20426;-58
2022/07/01 00:20:30;;;;;;;10.70;3.80;;;;;;;28.70;48.09;100393.19;4942256;29;20055;-58
2022/07/01 00:23:16;;;;;;;9.75;3.45;;;;;;;28.64;49.03;100392.22;4942101;29;20243;-58
2022/07/01 00:26:02;;;;;;;9.55;3.95;;;;;;;28.57;48.83;100408.41;4938353;29;20055;-57
2022/07/01 00:28:47;;;;;;;6.65;3.35;;;;;;;28.52;48.70;100398.56;4948523;29;20054;-59
2022/07/01 00:31:32;;;;;;;15.05;3.90;;;;;;;28.54;48.69;100396.13;4946788;28;20042;-59
2022/07/01 00:34:17;;;;;;;11.07;4.15;;;;;;;28.53;48.80;100397.34;4964164;28;20034;-58
2022/07/01 00:37:02;;;;;;;8.98;3.03;;;;;;;28.53;48.58;100397.34;4973959;28;20039;-58
2022/07/01 00:39:47;;;;;;;11.45;2.97;;;;;;;28.54;48.74;100404.50;4975645;28;20058;-58
2022/07/01 00:42:32;;;;;;;13.27;4.43;;;;;;;28.55;48.35;100399.69;4973792;28;20047;-58
2022/07/01 00:45:17;;;;;;;14.10;5.00;;;;;;;28.56;48.40;100401.25;4973905;28;20069;-57
2022/07/01 00:48:02;;;;;;;12.93;3.78;;;;;;;28.50;48.78;100399.00;4973843;28;20043;-58
2022/07/01 00:50:47;;;;;;;10.40;3.70;;;;;;;28.46;48.47;100405.94;4980387;28;20050;-58
2022/07/01 00:53:32;;;;;;;9.13;3.90;;;;;;;28.44;48.66;100405.63;4958000;28;20502;-58
2022/07/01 00:56:19;;;;;;;10.18;4.53;;;;;;;28.51;48.58;100408.19;4976983;28;20302;-58
2022/07/01 00:59:03;;;;;;;12.20;5.15;;;;;;;28.45;48.73;100415.56;4962346;28;20534;-58
2022/07/01 01:01:48;;;;;;;7.57;4.65;;;;;;;28.38;48.99;100410.19;4968035;28;20034;-58
2022/07/01 01:04:33;;;;;;;7.03;4.53;;;;;;;28.44;48.75;100416.81;4973479;28;20046;-58
2022/07/01 01:07:19;;;;;;;12.75;5.22;;;;;;;28.41;48.89;100403.69;4966374;28;20054;-58
2022/07/01 01:10:04;;;;;;;17.77;4.82;;;;;;;28.36;48.88;100395.84;4953985;29;20051;-58
2022/07/01 01:12:49;;;;;;;11.77;4.65;;;;;;;28.34;48.52;100398.31;4959552;28;20054;-59
2022/07/01 01:15:34;;;;;;;13.25;4.22;;;;;;;28.31;48.74;100393.59;4965798;28;20062;-58
2022/07/01 01:18:19;;;;;;;16.63;4.20;;;;;;;28.24;49.21;100394.56;4959672;28;20043;-59
2022/07/01 01:21:24;;;;;;;15.00;4.18;;;;;;;28.17;48.97;100391.22;4967991;28;20073;-58
2022/07/01 01:24:09;;;;;;;11.75;4.40;;;;;;;28.08;49.06;100387.03;4973275;28;20486;-58
2022/07/01 01:26:54;;;;;;;12.10;4.13;;;;;;;28.13;49.02;100387.75;4979456;28;20053;-58
2022/07/01 01:29:40;;;;;;;10.95;3.33;;;;;;;28.11;49.25;100401.34;4972381;28;20050;-58
2022/07/01 01:32:24;;;;;;;7.55;3.15;;;;;;;28.13;49.30;100398.94;4973012;28;20057;-58
2022/07/01 01:35:11;;;;;;;16.10;4.72;;;;;;;28.09;49.18;100408.16;4965559;28;20063;-58
2022/07/01 01:37:56;;;;;;;13.15;3.67;;;;;;;28.03;49.03;100400.78;4962323;28;20056;-59
2022/07/01 01:40:43;;;;;;;9.07;4.00;;;;;;;28.05;49.12;100410.28;4958699;28;20127;-58
2022/07/01 01:43:28;;;;;;;6.75;3.42;;;;;;;28.05;49.49;100407.47;4953480;29;20042;-58
2022/07/01 01:46:13;;;;;;;12.20;3.53;;;;;;;28.06;49.40;100395.06;4964325;28;20073;-58
2022/07/01 01:48:58;;;;;;;9.02;3.65;;;;;;;28.08;49.95;100398.22;4975797;28;20054;-57
2022/07/01 01:51:43;;;;;;;7.45;3.03;;;;;;;28.06;49.87;100395.06;4953649;29;20525;-58
2022/07/01 01:54:28;;;;;;;10.85;3.78;;;;;;;28.05;49.48;100404.69;4964699;28;20049;-58
2022/07/01 01:57:14;;;;;;;7.28;3.40;;;;;;;28.03;49.15;100398.75;4956811;28;20043;-58
2022/07/01 01:59:58;;;;;;;9.50;4.03;;;;;;;28.03;49.61;100401.56;4956291;28;20050;-58
2022/07/01 02:02:43;;;;;;;9.23;3.17;;;;;;;28.04;49.48;100397.50;4953941;29;20051;-58
2022/07/01 02:05:31;;;;;;;14.35;3.13;;;;;;;28.05;49.63;100399.09;4934436;29;20378;-58
2022/07/01 02:08:16;;;;;;;4.93;2.75;;;;;;;28.02;49.42;100402.00;4925661;29;20518;-59
2022/07/01 02:11:02;;;;;;;5.18;3.22;;;;;;;28.02;49.42;100405.56;4934334;29;20059;-58
2022/07/01 02:13:47;;;;;;;8.02;2.83;;;;;;;28.02;49.30;100404.78;4934250;29;20051;-59
2022/07/01 02:16:32;;;;;;;11.80;3.65;;;;;;;28.02;49.69;100399.97;4934203;29;20063;-59
2022/07/01 02:19:17;;;;;;;7.35;3.17;;;;;;;28.00;49.60;100399.63;4943468;28;20406;-58
2022/07/01 02:22:02;;;;;;;9.02;3.42;;;;;;;28.01;49.58;100398.41;4939922;28;20059;-59
2022/07/01 02:24:47;;;;;;;14.38;3.53;;;;;;;28.00;49.46;100391.25;4965281;28;20406;-58
2022/07/01 02:27:32;;;;;;;8.05;2.80;;;;;;;27.98;49.37;100398.53;4953394;29;20043;-58
2022/07/01 02:30:17;;;;;;;8.15;3.60;;;;;;;27.96;49.22;100393.34;4952954;29;20050;-58
2022/07/01 02:33:06;;;;;;;9.80;3.75;;;;;;;27.96;49.18;100387.78;4953262;29;20414;-59
2022/07/01 02:35:51;;;;;;;19.83;5.15;;;;;;;27.90;49.24;100391.53;4953010;29;20050;-58
2022/07/01 02:38:36;;;;;;;8.13;3.45;;;;;;;27.88;49.01;100382.81;4958955;28;20564;-58
2022/07/01 02:41:21;;;;;;;7.68;3.97;;;;;;;27.85;49.55;100381.69;4961542;28;20070;-58
2022/07/01 02:44:06;;;;;;;11.68;3.70;;;;;;;27.83;49.47;100381.34;4968310;28;20529;-58
2022/07/01 02:46:51;;;;;;;9.18;3.53;;;;;;;27.83;49.42;100372.97;4960087;28;20050;-58
2022/07/01 02:49:36;;;;;;;10.93;4.13;;;;;;;27.83;49.78;100372.97;4956704;29;20054;-58
2022/07/01 02:52:21;;;;;;;11.15;4.18;;;;;;;27.80;49.80;100368.25;4956557;29;20057;-56
2022/07/01 02:55:09;;;;;;;8.23;3.20;;;;;;;27.82;49.64;100365.03;4956655;29;20047;-58
2022/07/01 02:57:54;;;;;;;9.73;3.50;;;;;;;27.82;50.00;100371.41;4946889;28;20051;-58
2022/07/01 03:00:39;;;;;;;7.18;3.22;;;;;;;27.83;49.85;100370.19;4943440;28;20050;-58
2022/07/01 03:03:23;;;;;;;6.57;3.45;;;;;;;27.82;49.84;100374.19;4972298;28;20053;-57
2022/07/01 03:06:08;;;;;;;12.10;3.53;;;;;;;27.82;49.55;100379.78;4959963;28;20046;-58
2022/07/01 03:08:53;;;;;;;9.18;2.90;;;;;;;27.79;49.68;100377.06;4979747;28;20049;-58
2022/07/01 03:11:38;;;;;;;9.93;3.78;;;;;;;27.78;49.56;100376.31;4975707;28;20049;-58
2022/07/01 03:14:23;;;;;;;7.75;3.35;;;;;;;27.75;49.87;100374.38;4979065;28;20438;-58
2022/07/01 03:17:08;;;;;;;12.52;3.60;;;;;;;27.74;49.50;100375.59;4973006;28;20051;-58
2022/07/01 03:19:54;;;;;;;7.50;3.35;;;;;;;27.73;49.66;100382.44;4964298;28;20046;-58
2022/07/01 03:22:40;;;;;;;6.47;3.00;;;;;;;27.73;49.57;100385.22;4960453;28;20050;-58
2022/07/01 03:25:25;;;;;;;7.55;3.13;;;;;;;27.71;49.28;100382.06;4962294;28;20058;-58
2022/07/01 03:28:10;;;;;;;6.15;3.17;;;;;;;27.70;49.37;100399.28;4956210;29;20649;-58
2022/07/01 03:30:55;;;;;;;9.70;3.35;;;;;;;27.68;47.86;100396.16;4955928;29;20050;-58
2022/07/01 03:33:40;;;;;;;12.75;4.05;;;;;;;27.69;48.42;100408.88;4955822;29;20046;-58
2022/07/01 03:36:25;;;;;;;8.00;3.80;;;;;;;27.29;49.90;100405.50;4955657;29;20050;-58
2022/07/01 03:39:10;;;;;;;12.43;4.38;;;;;;;27.20;49.78;100415.28;4955699;29;20047;-58
2022/07/01 03:41:54;;;;;;;19.45;5.97;;;;;;;27.10;50.27;100418.31;4939945;28;20051;-58
2022/07/01 03:44:39;;;;;;;15.98;4.07;;;;;;;27.06;50.56;100426.78;4967351;28;20046;-58
2022/07/01 03:47:24;;;;;;;10.32;4.25;;;;;;;27.06;50.37;100426.78;4966896;28;20422;-57
2022/07/01 03:50:09;;;;;;;15.88;4.32;;;;;;;27.10;50.37;100421.91;4974919;28;20050;-58
2022/07/01 03:55:58;;;;;;;6.60;4.88;;;;;;;27.07;50.63;100422.00;4974731;28;20043;-58
2022/07/01 03:58:42;;;;;;;7.82;4.55;;;;;;;27.09;50.98;100417.53;4974570;28;20050;-58
2022/07/01 04:01:27;;;;;;;9.25;4.50;;;;;;;27.05;51.45;100413.25;4967798;28;20058;-58
2022/07/01 04:04:12;;;;;;;10.20;5.43;;;;;;;26.97;51.89;100412.63;4955408;29;20058;-58
2022/07/01 04:06:59;;;;;;;15.18;7.03;;;;;;;26.95;52.08;100405.91;4955638;28;20039;-58
2022/07/01 04:09:44;;;;;;;13.93;6.30;;;;;;;26.93;52.21;100403.56;4967674;28;20046;-58
2022/07/01 04:12:29;;;;;;;10.05;5.43;;;;;;;27.03;51.69;100413.69;4961475;28;20050;-58
2022/07/01 04:15:15;;;;;;;13.13;5.72;;;;;;;27.03;52.09;100410.88;4961761;28;20047;-58
2022/07/01 04:18:00;;;;;;;18.63;6.93;;;;;;;27.04;51.99;100420.84;4954817;29;20054;-58
2022/07/01 04:22:32;;;;;;;16.23;7.32;;;;;;;26.96;52.11;100408.28;4960972;28;20510;-58
2022/07/01 04:23:50;;;;;;;11.13;6.43;;;;;;;26.90;52.81;100409.22;4956954;28;20043;-58
2022/07/01 04:26:35;;;;;;;20.02;7.30;;;;;;;26.85;53.38;100406.91;4957622;28;20054;-58
2022/07/01 04:29:20;;;;;;;17.05;7.65;;;;;;;26.83;53.11;100410.94;4966384;23;20461;-63
2022/07/01 04:32:06;;;;;;;14.30;6.78;;;;;;;26.83;53.33;100415.72;4933985;28;20071;-63
2022/07/01 04:34:51;;;;;;;10.27;7.40;;;;;;;26.85;53.62;100412.50;4931220;29;20044;-63
2022/07/01 04:37:36;;;;;;;12.32;7.75;;;;;;;26.86;53.95;100408.50;4932275;29;20035;-63
2022/07/01 04:40:21;;;;;;;16.20;7.90;;;;;;;26.87;53.66;100410.88;4927721;29;20040;-61
2022/07/01 04:43:06;;;;;;;20.63;8.60;;;;;;;26.86;53.93;100403.72;4932558;29;20047;-65
2022/07/01 04:45:51;;;;;;;13.75;7.70;;;;;;;26.88;54.30;100414.44;4931087;29;20043;-65
2022/07/01 04:48:36;;;;;;;16.30;8.10;;;;;;;26.89;54.46;100405.66;4934578;29;20039;-68
2022/07/01 04:51:21;;;;;;;19.90;8.90;;;;;;;26.88;54.69;100400.50;4932026;29;20051;-62
2022/07/01 04:54:08;;;;;;;15.10;8.38;;;;;;;26.93;54.65;100406.34;4925273;29;20048;-62
2022/07/01 04:56:53;;;;;;;15.75;7.63;;;;;;;26.91;55.07;100394.06;4928571;29;20039;-60
2022/07/01 04:59:38;;;;;;;19.15;7.85;;;;;;;26.93;55.17;100391.59;4934142;29;20431;-59
2022/07/01 05:02:23;;;;;;;18.52;8.20;;;;;;;26.90;56.36;100393.28;4938675;29;20042;-60
2022/07/01 05:05:08;;;;;;;11.95;7.60;;;;;;;26.87;56.00;100388.53;4937219;29;20074;-60
2022/07/01 05:07:52;;;;;;;16.95;7.55;;;;;;;26.86;56.54;100403.72;4932515;29;20063;-58
2022/07/01 05:10:37;;;;;;;17.77;8.45;;;;;;;26.80;56.83;100395.06;4929750;29;20059;-60
2022/07/01 05:13:23;;;;;;;27.55;9.50;;;;;;;26.84;57.24;100383.81;4934426;29;20054;-60
2022/07/01 05:16:11;;;;;;;15.38;8.75;;;;;;;26.88;57.44;100394.91;4953704;29;20055;-61
2022/07/01 05:21:59;;;;;;;17.35;9.25;;;;;;;26.83;57.49;100393.41;4935570;29;20517;-58
2022/07/01 05:24:44;;;;;;;12.75;6.30;;;;;;;26.89;57.08;100388.91;4925812;29;20040;-59
2022/07/01 05:27:29;;;;;;;16.73;6.97;;;;;;;26.91;57.30;100406.00;4933389;29;20067;-61
2022/07/01 05:30:14;;;;;;;16.25;7.00;;;;;;;26.92;57.71;100406.81;4937788;29;20058;-61
2022/07/01 05:32:59;;;;;;;20.10;8.98;;;;;;;26.96;58.33;100413.88;4934559;29;20040;-60
2022/07/01 05:35:44;;;;;;;16.90;8.20;;;;;;;26.98;58.65;100405.81;4928539;29;20727;-59
2022/07/01 05:38:29;;;;;;;12.80;6.35;;;;;;;27.03;58.53;100413.69;4917229;29;20046;-59
2022/07/01 05:41:15;;;;;;;11.85;6.80;;;;;;;27.04;58.34;100418.06;4926263;29;20051;-60
2022/07/01 05:44:00;;;;;;;12.60;6.28;;;;;;;27.05;58.02;100421.63;4931182;29;20483;-60
2022/07/01 05:46:45;;;;;;;11.38;6.72;;;;;;;27.10;58.61;100415.53;4931706;29;20050;-59
2022/07/01 05:49:30;;;;;;;10.07;6.15;;;;;;;27.13;58.95;100418.22;4930638;29;20040;-60
2022/07/01 05:52:16;;;;;;;13.15;6.57;;;;;;;27.17;59.98;100424.50;4928032;29;20043;-61
2022/07/01 05:55:00;;;;;;;15.15;6.80;;;;;;;27.21;60.19;100425.22;4933002;29;20051;-61
2022/07/01 05:57:45;;;;;;;17.40;7.07;;;;;;;27.27;60.14;100421.91;4933888;29;20042;-59
2022/07/01 06:00:30;;;;;;;22.83;6.78;;;;;;;27.28;60.25;100427.03;4915090;29;20056;-59
2022/07/01 06:03:15;;;;;;;12.15;5.68;;;;;;;27.35;60.51;100434.47;4922123;29;20032;-61
2022/07/01 06:06:00;;;;;;;13.05;5.88;;;;;;;27.34;60.22;100432.88;4933740;29;20051;-59
2022/07/01 06:08:46;;;;;;;14.88;5.60;;;;;;;27.36;60.27;100430.47;4933875;29;20051;-59
2022/07/01 06:11:31;;;;;;;16.38;6.00;;;;;;;27.44;60.28;100431.84;4933373;29;20043;-58
2022/07/01 06:14:16;;;;;;;20.45;5.68;;;;;;;27.47;59.79;100436.56;4940044;28;20059;-58
2022/07/01 06:17:01;;;;;;;15.88;5.70;;;;;;;27.51;59.61;100428.91;4930853;29;20050;-58
2022/07/01 06:19:46;;;;;;;16.58;5.43;;;;;;;27.47;59.72;100430.97;4929743;29;20044;-58
2022/07/01 06:22:32;;;;;;;11.48;4.85;;;;;;;27.54;58.85;100437.19;4929349;29;20052;-59
2022/07/01 06:25:18;;;;;;;18.05;6.70;;;;;;;27.58;59.06;100431.53;4939452;29;20044;-61
2022/07/01 06:28:03;;;;;;;19.42;6.18;;;;;;;27.55;59.12;100430.38;4933919;29;20056;-61
2022/07/01 06:30:48;;;;;;;11.52;5.15;;;;;;;27.62;59.87;100432.22;4937653;29;20090;-61
2022/07/01 06:33:33;;;;;;;14.70;5.18;;;;;;;27.69;59.64;100425.63;4937929;29;20611;-60
2022/07/01 06:36:18;;;;;;;14.80;4.40;;;;;;;27.76;58.58;100425.47;4945247;29;20046;-61
2022/07/01 06:39:03;;;;;;;10.23;4.10;;;;;;;27.80;57.37;100409.38;4956305;28;20070;-58
2022/07/01 06:41:47;;;;;;;15.40;5.47;;;;;;;27.86;58.13;100405.63;4933389;29;20040;-61
2022/07/01 06:44:33;;;;;;;23.25;6.15;;;;;;;27.91;57.75;100407.88;4918317;29;20546;-61
2022/07/01 06:47:18;;;;;;;11.75;4.38;;;;;;;27.97;57.39;100414.50;4920853;29;20436;-60
2022/07/01 06:50:04;;;;;;;21.83;5.00;;;;;;;28.06;57.23;100409.06;4936873;29;20047;-61
2022/07/01 06:52:48;;;;;;;13.35;4.35;;;;;;;28.11;56.67;100406.94;4937188;29;20515;-61
2022/07/01 06:55:34;;;;;;;13.73;4.40;;;;;;;28.14;56.03;100414.50;4934633;29;20066;-60
2022/07/01 06:58:19;;;;;;;14.10;4.45;;;;;;;28.18;55.82;100412.38;4936067;29;20044;-59
2022/07/01 07:01:05;;;;;;;19.95;5.78;;;;;;;28.19;55.82;100414.69;4928554;29;20051;-61
2022/07/01 07:03:50;;;;;;;13.80;4.65;;;;;;;28.24;55.43;100407.81;4939684;29;20043;-59
2022/07/01 07:06:35;;;;;;;7.63;4.03;;;;;;;28.27;54.79;100404.09;4937174;29;20047;-58
2022/07/01 07:09:20;;;;;;;10.10;4.30;;;;;;;28.31;55.04;100394.38;4937195;29;20050;-61
2022/07/01 07:12:05;;;;;;;8.55;3.72;;;;;;;28.42;54.64;100394.06;4937120;29;20075;-61
2022/07/01 07:14:50;;;;;;;17.15;5.43;;;;;;;28.42;54.59;100380.09;4935550;29;20047;-63
2022/07/01 07:17:35;;;;;;;14.00;3.47;;;;;;;28.50;54.52;100389.81;4934946;29;20040;-64
2022/07/01 07:20:20;;;;;;;12.98;3.60;;;;;;;28.49;53.54;100388.28;4935815;29;20039;-62
2022/07/01 07:23:05;;;;;;;10.20;3.22;;;;;;;28.56;53.85;100381.66;4936293;29;20431;-62
2022/07/01 07:25:50;;;;;;;13.40;3.70;;;;;;;28.65;52.77;100376.97;4936100;29;20043;-61
2022/07/01 07:28:35;;;;;;;9.15;3.70;;;;;;;28.75;52.69;100375.13;4934596;29;20407;-61
2022/07/01 07:31:20;;;;;;;7.93;2.83;;;;;;;28.73;52.87;100369.97;4936038;29;20403;-62
2022/07/01 07:34:05;;;;;;;17.17;4.35;;;;;;;28.87;52.88;100363.91;4936300;29;20079;-64
2022/07/01 07:36:50;;;;;;;9.82;2.88;;;;;;;28.90;52.66;100362.22;4935062;29;20063;-61
2022/07/01 07:39:35;;;;;;;15.40;3.28;;;;;;;28.89;52.70;100361.44;4935685;29;20050;-62
2022/07/01 07:42:20;;;;;;;7.47;2.90;;;;;;;28.91;52.36;100361.75;4936099;29;20040;-63
2022/07/01 07:45:07;;;;;;;11.00;4.07;;;;;;;28.98;52.34;100366.34;4924244;29;20055;-61
2022/07/01 07:47:54;;;;;;;18.33;4.28;;;;;;;29.08;52.25;100376.44;4935665;29;20039;-60
2022/07/01 07:50:40;;;;;;;16.92;3.85;;;;;;;29.15;52.24;100384.59;4935942;29;20047;-62
2022/07/01 07:53:24;;;;;;;13.52;4.32;;;;;;;29.28;51.39;100387.38;4935872;29;20039;-60
2022/07/01 07:56:09;;;;;;;13.77;3.50;;;;;;;29.33;51.48;100381.22;4936841;29;20059;-61
2022/07/01 07:58:54;;;;;;;9.30;4.15;;;;;;;29.43;51.61;100382.88;4934686;29;20035;-62
2022/07/01 08:01:39;;;;;;;13.48;3.28;;;;;;;29.42;51.71;100381.31;4930050;29;20059;-61
2022/07/01 08:04:24;;;;;;;9.52;2.78;;;;;;;29.48;51.51;100385.09;4927135;29;20055;-60
2022/07/01 08:07:09;;;;;;;9.68;3.40;;;;;;;29.51;50.96;100383.44;4931852;29;20751;-60
2022/07/01 08:09:55;;;;;;;21.58;3.65;;;;;;;29.63;50.87;100383.38;4927391;29;20047;-60
2022/07/01 08:12:40;;;;;;;10.35;2.45;;;;;;;29.53;50.38;100380.94;4935296;29;20055;-61
2022/07/01 08:15:24;;;;;;;19.23;4.03;;;;;;;29.65;50.19;100382.94;4928391;29;20495;-60
2022/07/01 08:18:09;;;;;;;6.47;2.83;;;;;;;29.77;50.22;100391.28;4934164;29;20716;-61
2022/07/01 08:20:55;;;;;;;13.88;3.03;;;;;;;29.81;49.88;100390.38;4935321;29;20067;-61
2022/07/01 08:23:39;;;;;;;13.32;2.92;;;;;;;29.79;49.83;100392.84;4929789;29;20411;-62
2022/07/01 08:26:24;;;;;;;12.85;3.58;;;;;;;29.94;49.05;100410.75;4934450;29;20039;-60
2022/07/01 08:29:09;;;;;;;16.45;3.63;;;;;;;29.96;48.63;100423.09;4933808;29;20043;-61
2022/07/01 08:31:54;;;;;;;13.07;3.42;;;;;;;30.04;48.52;100421.59;4930378;29;20047;-61
2022/07/01 08:34:39;;;;;;;19.20;4.20;;;;;;;30.13;48.28;100407.63;4919879;29;20036;-60
2022/07/01 08:37:24;;;;;;;18.38;3.55;;;;;;;30.22;48.20;100423.00;4936626;28;20052;-60
2022/07/01 08:40:09;;;;;;;11.02;3.40;;;;;;;30.22;48.20;100423.78;4929012;29;20492;-61
2022/07/01 08:43:03;;;;;;;13.95;3.63;;;;;;;30.20;47.78;100428.25;4931174;29;20046;-59
2022/07/01 08:45:50;;;;;;;13.75;3.75;;;;;;;30.26;47.96;100426.44;4927761;29;20409;-60
2022/07/01 08:48:35;;;;;;;14.38;3.88;;;;;;;30.35;47.98;100435.69;4928579;29;20047;-60
2022/07/01 08:51:20;;;;;;;12.25;3.78;;;;;;;30.38;47.09;100429.16;4934613;29;20043;-62
2022/07/01 08:54:05;;;;;;;11.05;3.25;;;;;;;30.36;47.42;100442.88;4934709;29;20063;-62
2022/07/01 08:56:50;;;;;;;9.93;3.25;;;;;;;30.36;47.17;100437.28;4934118;29;20051;-62
2022/07/01 08:59:35;;;;;;;14.00;4.40;;;;;;;30.37;47.43;100441.66;4937121;29;20051;-62
2022/07/01 09:02:20;;;;;;;14.68;4.22;;;;;;;30.36;46.54;100459.72;4933401;29;20047;-61
2022/07/01 09:05:06;;;;;;;17.52;4.32;;;;;;;30.35;47.28;100466.56;4932714;29;20039;-62
2022/07/01 09:07:59;;;;;;;15.63;4.30;;;;;;;30.37;47.40;100466.13;4949306;29;20047;-61
2022/07/01 09:10:45;;;;;;;11.68;3.08;;;;;;;30.36;47.31;100465.34;4922864;29;20457;-61
2022/07/01 09:13:30;;;;;;;11.63;3.35;;;;;;;30.39;47.15;100463.63;4933888;29;20227;-61
2022/07/01 09:16:16;;;;;;;14.43;3.92;;;;;;;30.41;47.50;100463.97;4934189;29;20039;-61
2022/07/01 09:19:03;;;;;;;10.43;3.40;;;;;;;30.34;47.76;100467.00;4933963;29;20035;-62
2022/07/01 09:21:55;;;;;;;7.75;2.47;;;;;;;30.27;47.75;100467.28;4932557;29;20051;-61
2022/07/01 09:24:42;;;;;;;8.88;3.15;;;;;;;30.25;47.29;100464.16;4933459;29;20067;-61
2022/07/01 09:27:27;;;;;;;11.48;3.83;;;;;;;30.29;47.53;100471.19;4922060;29;20071;-61
2022/07/01 09:30:12;;;;;;;12.85;2.65;;;;;;;30.39;47.86;100458.78;4933828;29;20168;-61
2022/07/01 09:33:07;;;;;;;7.78;2.92;;;;;;;30.35;47.59;100466.56;4933876;29;20431;-61
2022/07/01 09:35:53;;;;;;;5.80;3.13;;;;;;;30.30;47.40;100466.38;4934494;29;20051;-61
2022/07/01 09:38:47;;;;;;;13.80;3.35;;;;;;;30.41;47.26;100466.75;4933917;29;20042;-61
2022/07/01 09:41:37;;;;;;;10.13;2.85;;;;;;;30.63;46.63;100463.97;4934653;29;20054;-63
2022/07/01 09:44:22;;;;;;;11.30;3.25;;;;;;;30.64;46.70;100462.72;4935411;29;20055;-61
2022/07/01 09:47:07;;;;;;;11.95;3.25;;;;;;;30.71;46.21;100462.44;4933695;29;20530;-61
2022/07/01 09:49:53;;;;;;;13.98;3.63;;;;;;;30.58;46.54;100460.50;4933993;29;20044;-61
2022/07/01 09:52:38;;;;;;;13.63;3.25;;;;;;;30.56;46.59;100457.38;4928768;29;20043;-62
2022/07/01 09:55:24;;;;;;;11.98;3.40;;;;;;;30.51;46.54;100455.16;4934772;29;20054;-62
2022/07/01 09:58:09;;;;;;;24.02;3.30;;;;;;;30.61;46.89;100456.00;4933819;29;20051;-62
2022/07/01 10:00:55;;;;;;;6.35;2.65;;;;;;;30.52;46.81;100451.13;4936559;29;20050;-61
2022/07/01 10:03:40;;;;;;;4.95;2.08;;;;;;;30.58;46.43;100448.47;4926999;29;20047;-61
2022/07/01 10:07:00;;;;;;;9.18;2.83;;;;;;;30.66;46.45;100463.06;4931212;29;20523;-61
2022/07/01 10:10:04;;;;;;;5.18;2.53;;;;;;;30.63;46.11;100452.75;4917710;29;20043;-61
2022/07/01 10:12:55;;;;;;;8.50;2.63;;;;;;;30.69;46.03;100454.47;4918307;29;20059;-61
2022/07/01 10:15:41;;;;;;;7.82;2.53;;;;;;;30.81;45.22;100464.06;4918213;29;20043;-61
2022/07/01 10:18:27;;;;;;;14.60;2.92;;;;;;;31.07;45.41;100461.88;4917625;29;20055;-61
2022/07/01 10:21:27;;;;;;;10.55;3.33;;;;;;;31.11;44.93;100468.91;4916996;29;20055;-62
2022/07/01 10:24:16;;;;;;;6.07;2.53;;;;;;;31.03;45.29;100461.25;4916959;29;20508;-61
2022/07/01 10:27:18;;;;;;;10.70;2.65;;;;;;;31.12;45.01;100461.28;4929226;29;20050;-62
2022/07/01 10:30:14;;;;;;;6.95;2.70;;;;;;;31.27;44.09;100465.06;4936773;23;20075;-77
2022/07/01 10:32:59;;;;;;;11.43;2.95;;;;;;;31.44;43.51;100458.72;4943917;28;20409;-79
2022/07/01 10:35:47;;;;;;;7.60;2.55;;;;;;;31.46;43.75;100465.91;4929737;29;20048;-79
2022/07/01 10:38:32;;;;;;;5.35;2.53;;;;;;;31.38;43.86;100469.03;4937207;29;20050;-78
2022/07/01 10:41:24;;;;;;;4.13;2.25;;;;;;;31.30;44.40;100450.88;4942879;29;20054;-79
2022/07/01 10:44:14;;;;;;;7.20;2.40;;;;;;;31.48;43.75;100450.16;4944761;29;20113;-79
2022/07/01 10:47:05;;;;;;;21.77;2.75;;;;;;;31.70;42.29;100447.22;4952975;29;20050;-77
2022/07/01 10:49:54;;;;;;;7.25;2.20;;;;;;;31.69;42.19;100459.75;4934637;29;20408;-79
2022/07/01 10:52:58;;;;;;;9.52;2.47;;;;;;;31.76;41.44;100446.16;4930145;29;20070;-80
2022/07/01 10:55:48;;;;;;;16.05;2.22;;;;;;;31.73;42.10;100447.09;4935271;29;20047;-80
2022/07/01 10:58:41;;;;;;;12.40;2.50;;;;;;;31.74;41.64;100443.03;4935808;29;20040;-79
2022/07/01 11:01:27;;;;;;;8.53;2.53;;;;;;;31.85;40.42;100437.72;4943001;29;20048;-80
2022/07/01 11:04:12;;;;;;;10.45;2.45;;;;;;;31.78;41.25;100435.22;4944861;28;20050;-79
2022/07/01 11:06:58;;;;;;;5.95;2.20;;;;;;;31.77;41.66;100436.47;4941261;29;20051;-79
2022/07/01 11:09:43;;;;;;;9.00;1.83;;;;;;;31.70;41.59;100427.53;4943993;29;20051;-80
2022/07/01 11:12:29;;;;;;;16.10;2.50;;;;;;;31.76;41.38;100428.50;4933618;29;20046;-78
2022/07/01 11:15:15;;;;;;;9.05;2.10;;;;;;;31.82;40.46;100432.25;4935637;29;20056;-78
2022/07/01 11:18:01;;;;;;;4.88;1.95;;;;;;;32.07;39.40;100425.53;4937391;29;20140;-79
2022/07/01 11:20:45;;;;;;;8.38;3.28;;;;;;;32.25;37.98;100417.84;4944249;28;20062;-79
2022/07/01 11:23:30;;;;;;;12.98;2.42;;;;;;;32.24;37.94;100423.97;4953202;28;20554;-79
2022/07/01 11:26:22;;;;;;;8.25;1.98;;;;;;;32.25;38.66;100426.31;4955658;29;20063;-79
2022/07/01 11:29:10;;;;;;;7.38;2.10;;;;;;;32.37;38.19;100420.97;4943396;28;20043;-79
2022/07/01 11:31:54;;;;;;;10.02;2.45;;;;;;;32.42;37.47;100420.34;4944009;29;20058;-79
2022/07/01 11:34:40;;;;;;;7.25;1.75;;;;;;;32.55;37.71;100412.50;4939234;29;20047;-78
2022/07/01 11:40:33;;;;;;;7.72;2.10;;;;;;;32.40;38.39;100420.03;4947588;28;20047;-77
2022/07/01 11:43:25;;;;;;;5.63;1.88;;;;;;;32.26;38.60;100407.38;4953998;29;20050;-78
2022/07/01 11:46:12;;;;;;;7.00;2.33;;;;;;;32.30;38.83;100416.47;4949652;29;20055;-78
2022/07/01 11:48:57;;;;;;;14.60;3.70;;;;;;;32.32;38.29;100418.78;4946461;28;20507;-78
2022/07/01 11:51:42;;;;;;;5.88;1.60;;;;;;;32.43;37.70;100407.81;4944066;29;20050;-78
2022/07/01 11:54:27;;;;;;;4.68;1.70;;;;;;;32.75;36.49;100409.97;4937373;29;20055;-78
2022/07/01 11:57:16;;;;;;;5.88;1.65;;;;;;;32.58;37.26;100408.72;4946689;29;20070;-79
2022/07/01 12:00:10;;;;;;;6.45;1.50;;;;;;;32.69;37.28;100414.66;4948956;29;20038;-79
2022/07/01 12:02:57;;;;;;;5.30;1.83;;;;;;;32.55;37.90;100406.88;4955848;28;20543;-78
2022/07/01 12:05:42;;;;;;;6.30;2.22;;;;;;;32.72;36.81;100401.66;4946117;29;20047;-78
2022/07/01 12:08:27;;;;;;;19.65;2.10;;;;;;;33.00;36.63;100412.34;4943939;29;20047;-78
2022/07/01 12:11:13;;;;;;;4.75;1.80;;;;;;;33.00;35.73;100403.09;4951957;28;20509;-78
2022/07/01 12:13:58;;;;;;;7.78;2.20;;;;;;;33.22;36.25;100412.09;4940843;29;20043;-78
2022/07/01 12:16:43;;;;;;;10.10;1.73;;;;;;;33.27;37.21;100410.69;4937819;29;20054;-79
2022/07/01 12:19:38;;;;;;;5.53;1.63;;;;;;;33.29;35.88;100410.97;4943955;28;20047;-78
2022/07/01 12:22:26;;;;;;;4.22;1.50;;;;;;;33.14;35.50;100399.59;4957374;28;20058;-79
2022/07/01 12:25:15;;;;;;;7.78;2.10;;;;;;;33.03;35.07;100391.66;4956719;29;20050;-78
2022/07/01 12:28:00;;;;;;;10.15;1.75;;;;;;;32.94;35.95;100390.94;4954076;28;20117;-79
2022/07/01 12:30:45;;;;;;;5.40;1.58;;;;;;;32.93;34.53;100383.72;4943870;28;20076;-79
2022/07/01 12:33:30;;;;;;;5.05;1.60;;;;;;;33.03;33.12;100376.78;4939259;29;20047;-78
2022/07/01 12:36:15;;;;;;;9.80;2.63;;;;;;;33.07;34.11;100385.84;4938818;29;20054;-79
2022/07/01 12:39:06;;;;;;;6.22;1.63;;;;;;;33.21;32.90;100381.56;4929470;28;20047;-78
2022/07/01 12:41:51;;;;;;;3.45;1.38;;;;;;;33.28;32.82;100381.97;4946176;28;20055;-78
2022/07/01 12:44:45;;;;;;;4.82;1.48;;;;;;;33.28;32.43;100376.34;4936515;29;20055;-79
2022/07/01 12:47:33;;;;;;;5.85;1.27;;;;;;;33.43;32.24;100385.63;4939753;29;20062;-79
2022/07/01 12:50:25;;;;;;;6.03;1.63;;;;;;;33.45;33.31;100383.13;4939382;29;20055;-79
2022/07/01 12:53:12;;;;;;;10.75;2.08;;;;;;;33.36;32.61;100379.59;4956431;29;20046;-79
2022/07/01 12:55:57;;;;;;;10.38;1.25;;;;;;;33.49;31.98;100380.13;4950217;29;20043;-78